createdAt,value
2017-07-28T00:00:49.871Z,0
2017-07-28T00:01:51.552Z,0
2017-07-28T00:02:53.225Z,0
2017-07-28T00:03:54.890Z,0
2017-07-28T00:04:56.555Z,0
2017-07-28T00:05:58.209Z,0
2017-07-28T00:06:59.877Z,0
2017-07-28T00:08:01.540Z,0
2017-07-28T00:09:03.207Z,0
2017-07-28T00:10:04.871Z,0
2017-07-28T00:11:06.534Z,0
2017-07-28T00:12:08.211Z,0
2017-07-28T00:13:09.875Z,0
2017-07-28T00:14:11.529Z,0
2017-07-28T00:15:13.185Z,0
2017-07-28T00:16:14.845Z,0
2017-07-28T00:17:16.513Z,0
2017-07-28T00:18:18.191Z,0
2017-07-28T00:19:19.854Z,0
2017-07-28T00:20:21.506Z,0
2017-07-28T00:21:23.171Z,0
2017-07-28T00:22:24.835Z,0
2017-07-28T00:23:26.495Z,0
2017-07-28T00:24:28.154Z,0
2017-07-28T00:25:29.819Z,0
2017-07-28T00:26:31.471Z,0
2017-07-28T00:27:33.141Z,0
2017-07-28T00:28:34.795Z,0
2017-07-28T00:29:36.460Z,0
2017-07-28T00:30:38.131Z,0
2017-07-28T00:31:39.793Z,0
2017-07-28T00:32:41.453Z,0
2017-07-28T00:33:43.130Z,0
2017-07-28T00:34:44.802Z,0
2017-07-28T00:35:46.461Z,0
2017-07-28T00:36:48.139Z,0
2017-07-28T00:37:49.802Z,0
2017-07-28T00:38:51.475Z,0
2017-07-28T00:39:53.144Z,0
2017-07-28T00:40:54.807Z,0
2017-07-28T00:41:56.459Z,0
2017-07-28T00:42:58.148Z,0
2017-07-28T00:43:59.815Z,0
2017-07-28T00:45:01.518Z,0
2017-07-28T00:46:03.188Z,0
2017-07-28T00:47:04.847Z,0
2017-07-28T00:48:06.508Z,0
2017-07-28T00:49:08.207Z,0
2017-07-28T00:50:09.860Z,0
2017-07-28T00:51:11.518Z,0
2017-07-28T00:52:13.179Z,0
2017-07-28T00:53:14.839Z,0
2017-07-28T00:54:16.500Z,0
2017-07-28T00:55:18.161Z,0
2017-07-28T00:56:19.809Z,0
2017-07-28T00:57:21.479Z,0
2017-07-28T00:58:23.145Z,0
2017-07-28T00:59:24.807Z,0
2017-07-28T01:00:26.476Z,0
2017-07-28T01:01:28.148Z,0
2017-07-28T01:02:29.822Z,0
2017-07-28T01:03:31.529Z,0
2017-07-28T01:04:33.182Z,0
2017-07-28T01:05:34.845Z,0
2017-07-28T01:06:36.507Z,0
2017-07-28T01:07:38.169Z,0
2017-07-28T01:08:39.833Z,0
2017-07-28T01:09:41.495Z,0
2017-07-28T01:10:43.158Z,0
2017-07-28T01:11:44.820Z,0
2017-07-28T01:12:46.477Z,0
2017-07-28T01:13:48.146Z,0
2017-07-28T01:14:49.798Z,0
2017-07-28T01:15:51.457Z,0
2017-07-28T01:16:53.120Z,0
2017-07-28T01:17:54.775Z,0
2017-07-28T01:18:56.439Z,0
2017-07-28T01:19:58.120Z,0
2017-07-28T01:20:59.786Z,0
2017-07-28T01:22:01.436Z,0
2017-07-28T01:23:03.109Z,0
2017-07-28T01:24:04.772Z,0
2017-07-28T01:25:06.433Z,0
2017-07-28T01:26:08.091Z,0
2017-07-28T01:27:09.755Z,0
2017-07-28T01:28:11.415Z,0
2017-07-28T01:29:13.075Z,0
2017-07-28T01:30:14.742Z,0
2017-07-28T01:31:16.411Z,0
2017-07-28T01:32:18.072Z,0
2017-07-28T01:33:19.728Z,0
2017-07-28T01:34:21.395Z,0
2017-07-28T01:35:23.056Z,0
2017-07-28T01:36:24.727Z,0
2017-07-28T01:37:26.385Z,0
2017-07-28T01:38:28.054Z,0
2017-07-28T01:39:29.727Z,0
2017-07-28T01:40:31.389Z,0
2017-07-28T01:41:33.182Z,0
2017-07-28T01:42:34.841Z,0
2017-07-28T01:43:36.502Z,0
2017-07-28T01:44:38.173Z,0
2017-07-28T01:45:39.830Z,0
2017-07-28T01:46:41.487Z,0
2017-07-28T01:47:43.156Z,0
2017-07-28T01:48:44.814Z,0
2017-07-28T01:49:46.475Z,0
2017-07-28T01:50:48.137Z,0
2017-07-28T01:51:49.806Z,0
2017-07-28T01:52:51.475Z,0
2017-07-28T01:53:53.132Z,0
2017-07-28T01:54:54.791Z,0
2017-07-28T01:55:56.457Z,0
2017-07-28T01:56:58.115Z,0
2017-07-28T01:57:59.783Z,0
2017-07-28T01:59:01.443Z,0
2017-07-28T02:00:03.117Z,0
2017-07-28T02:01:04.787Z,0
2017-07-28T02:02:06.452Z,0
2017-07-28T02:03:08.120Z,0
2017-07-28T02:04:09.771Z,0
2017-07-28T02:05:11.433Z,0
2017-07-28T02:06:13.105Z,0
2017-07-28T02:07:14.771Z,0
2017-07-28T02:08:16.433Z,0
2017-07-28T02:09:18.102Z,0
2017-07-28T02:10:19.758Z,0
2017-07-28T02:11:21.428Z,0
2017-07-28T02:12:23.090Z,0
2017-07-28T02:13:24.748Z,0
2017-07-28T02:14:26.364Z,0
2017-07-28T02:15:28.024Z,0
2017-07-28T02:16:29.688Z,0
2017-07-28T02:17:31.436Z,0
2017-07-28T02:18:33.097Z,0
2017-07-28T02:19:34.763Z,0
2017-07-28T02:20:36.420Z,0
2017-07-28T02:21:38.083Z,0
2017-07-28T02:22:39.753Z,0
2017-07-28T02:23:41.425Z,0
2017-07-28T02:24:43.118Z,0
2017-07-28T02:25:44.774Z,0
2017-07-28T02:26:46.434Z,0
2017-07-28T02:27:48.097Z,0
2017-07-28T02:28:49.766Z,0
2017-07-28T02:29:51.423Z,0
2017-07-28T02:30:53.079Z,0
2017-07-28T02:31:54.738Z,0
2017-07-28T02:32:56.403Z,0
2017-07-28T02:33:58.066Z,0
2017-07-28T02:34:59.732Z,0
2017-07-28T02:36:01.406Z,0
2017-07-28T02:37:03.061Z,0
2017-07-28T02:38:04.720Z,0
2017-07-28T02:39:06.392Z,0
2017-07-28T02:40:08.062Z,0
2017-07-28T02:41:09.721Z,0
2017-07-28T02:42:11.393Z,0
2017-07-28T02:43:13.057Z,0
2017-07-28T02:44:14.715Z,0
2017-07-28T02:45:16.370Z,0
2017-07-28T02:46:18.037Z,0
2017-07-28T02:47:19.716Z,0
2017-07-28T02:48:21.384Z,0
2017-07-28T02:49:23.053Z,0
2017-07-28T02:50:24.722Z,0
2017-07-28T02:51:26.376Z,0
2017-07-28T02:52:28.124Z,0
2017-07-28T02:53:29.790Z,0
2017-07-28T02:54:31.452Z,0
2017-07-28T02:55:33.113Z,0
2017-07-28T02:56:34.769Z,0
2017-07-28T02:57:36.448Z,0
2017-07-28T02:58:38.102Z,0
2017-07-28T02:59:39.764Z,0
2017-07-28T03:00:41.435Z,0
2017-07-28T03:01:43.096Z,0
2017-07-28T03:02:44.756Z,0
2017-07-28T03:03:46.417Z,0
2017-07-28T03:04:48.079Z,0
2017-07-28T03:05:49.744Z,0
2017-07-28T03:06:51.408Z,4
2017-07-28T03:07:53.076Z,4
2017-07-28T03:08:54.754Z,4
2017-07-28T03:09:56.416Z,4
2017-07-28T03:10:58.083Z,4
2017-07-28T03:11:59.759Z,8
2017-07-28T03:13:01.422Z,4
2017-07-28T03:14:03.078Z,8
2017-07-28T03:15:04.741Z,8
2017-07-28T03:16:06.417Z,12
2017-07-28T03:17:08.079Z,12
2017-07-28T03:18:09.744Z,12
2017-07-28T03:19:11.403Z,16
2017-07-28T03:20:13.067Z,20
2017-07-28T03:21:14.727Z,24
2017-07-28T03:22:16.402Z,24
2017-07-28T03:23:18.069Z,28
2017-07-28T03:24:19.745Z,36
2017-07-28T03:25:21.417Z,40
2017-07-28T03:26:23.081Z,48
2017-07-28T03:27:24.747Z,52
2017-07-28T03:28:26.409Z,60
2017-07-28T03:29:28.073Z,68
2017-07-28T03:30:29.743Z,76
2017-07-28T03:31:31.408Z,88
2017-07-28T03:32:33.082Z,96
2017-07-28T03:33:35.417Z,108
2017-07-28T03:34:37.085Z,124
2017-07-28T03:35:38.748Z,136
2017-07-28T03:36:40.416Z,156
2017-07-28T03:37:42.080Z,172
2017-07-28T03:38:43.744Z,188
2017-07-28T03:39:45.420Z,208
2017-07-28T03:40:47.084Z,232
2017-07-28T03:41:48.749Z,252
2017-07-28T03:42:50.414Z,276
2017-07-28T03:43:52.076Z,300
2017-07-28T03:44:53.737Z,328
2017-07-28T03:45:55.396Z,356
2017-07-28T03:46:57.062Z,384
2017-07-28T03:47:58.736Z,416
2017-07-28T03:49:00.399Z,448
2017-07-28T03:50:02.070Z,484
2017-07-28T03:51:03.727Z,516
2017-07-28T03:52:05.397Z,548
2017-07-28T03:53:07.055Z,588
2017-07-28T03:54:08.718Z,624
2017-07-28T03:55:10.469Z,664
2017-07-28T03:56:12.133Z,704
2017-07-28T03:57:13.798Z,744
2017-07-28T03:58:15.464Z,792
2017-07-28T03:59:17.198Z,836
2017-07-28T04:00:18.869Z,880
2017-07-28T04:01:20.546Z,928
2017-07-28T04:02:22.223Z,972
2017-07-28T04:03:23.891Z,1020
2017-07-28T04:04:25.634Z,1072
2017-07-28T04:05:27.297Z,1124
2017-07-28T04:06:28.965Z,1180
2017-07-28T04:07:30.625Z,1232
2017-07-28T04:08:32.301Z,1288
2017-07-28T04:09:33.963Z,1344
2017-07-28T04:10:35.626Z,1396
2017-07-28T04:11:37.295Z,1452
2017-07-28T04:12:38.957Z,1504
2017-07-28T04:13:40.616Z,1552
2017-07-28T04:14:42.283Z,1608
2017-07-28T04:15:43.948Z,1660
2017-07-28T04:16:45.618Z,1720
2017-07-28T04:17:47.285Z,1776
2017-07-28T04:18:48.949Z,1840
2017-07-28T04:19:50.614Z,1900
2017-07-28T04:20:52.281Z,1960
2017-07-28T04:21:53.945Z,2024
2017-07-28T04:22:55.629Z,2080
2017-07-28T04:23:57.299Z,2136
2017-07-28T04:24:58.963Z,2204
2017-07-28T04:26:00.632Z,2256
2017-07-28T04:27:02.308Z,2316
2017-07-28T04:28:03.965Z,2384
2017-07-28T04:29:05.634Z,2452
2017-07-28T04:30:07.300Z,2512
2017-07-28T04:31:08.976Z,2556
2017-07-28T04:32:10.651Z,2620
2017-07-28T04:33:12.317Z,2664
2017-07-28T04:34:13.983Z,2712
2017-07-28T04:35:15.734Z,2800
2017-07-28T04:36:17.407Z,2852
2017-07-28T04:37:19.072Z,2928
2017-07-28T04:38:20.737Z,2992
2017-07-28T04:39:22.405Z,3052
2017-07-28T04:40:24.058Z,3124
2017-07-28T04:41:25.725Z,3180
2017-07-28T04:42:27.417Z,3232
2017-07-28T04:43:29.083Z,3284
2017-07-28T04:44:30.795Z,3340
2017-07-28T04:45:32.457Z,3396
2017-07-28T04:46:34.124Z,3456
2017-07-28T04:47:35.798Z,3516
2017-07-28T04:48:37.453Z,3576
2017-07-28T04:49:39.118Z,3628
2017-07-28T04:50:40.785Z,3688
2017-07-28T04:51:42.450Z,3740
2017-07-28T04:52:44.127Z,3800
2017-07-28T04:53:45.794Z,3840
2017-07-28T04:54:47.465Z,3888
2017-07-28T04:55:49.130Z,4064
2017-07-28T04:56:50.796Z,5064
2017-07-28T04:57:52.461Z,6204
2017-07-28T04:58:54.123Z,6688
2017-07-28T04:59:55.832Z,6872
2017-07-28T05:00:57.474Z,7036
2017-07-28T05:01:59.132Z,7104
2017-07-28T05:03:00.809Z,7436
2017-07-28T05:04:02.460Z,7608
2017-07-28T05:05:04.153Z,7620
2017-07-28T05:06:05.819Z,7908
2017-07-28T05:07:07.490Z,8060
2017-07-28T05:08:09.152Z,8156
2017-07-28T05:09:10.814Z,8292
2017-07-28T05:10:12.481Z,8456
2017-07-28T05:11:14.148Z,8712
2017-07-28T05:12:15.815Z,8952
2017-07-28T05:13:17.478Z,9136
2017-07-28T05:14:19.152Z,9280
2017-07-28T05:15:20.827Z,9360
2017-07-28T05:16:22.494Z,9320
2017-07-28T05:17:24.155Z,9492
2017-07-28T05:18:25.831Z,9656
2017-07-28T05:19:27.498Z,9748
2017-07-28T05:20:29.164Z,9800
2017-07-28T05:21:30.836Z,9948
2017-07-28T05:22:32.508Z,9976
2017-07-28T05:23:34.166Z,10652
2017-07-28T05:24:35.835Z,10436
2017-07-28T05:25:37.498Z,10676
2017-07-28T05:26:39.165Z,10804
2017-07-28T05:27:40.850Z,11260
2017-07-28T05:28:42.507Z,11396
2017-07-28T05:29:44.171Z,11692
2017-07-28T05:30:45.836Z,12156
2017-07-28T05:31:47.506Z,12308
2017-07-28T05:32:49.173Z,13460
2017-07-28T05:33:50.844Z,10044
2017-07-28T05:34:52.507Z,8872
2017-07-28T05:35:54.175Z,10552
2017-07-28T05:36:55.850Z,10576
2017-07-28T05:37:57.520Z,11432
2017-07-28T05:38:59.186Z,11932
2017-07-28T05:40:00.853Z,8116
2017-07-28T05:41:02.524Z,8064
2017-07-28T05:42:04.185Z,12332
2017-07-28T05:43:05.852Z,15064
2017-07-28T05:44:07.513Z,13240
2017-07-28T05:45:09.182Z,11636
2017-07-28T05:46:10.849Z,10452
2017-07-28T05:47:12.520Z,10380
2017-07-28T05:48:14.196Z,9424
2017-07-28T05:49:15.858Z,11560
2017-07-28T05:50:17.575Z,11776
2017-07-28T05:51:19.241Z,12112
2017-07-28T05:52:20.948Z,13532
2017-07-28T05:53:22.633Z,14052
2017-07-28T05:54:24.302Z,12872
2017-07-28T05:55:25.965Z,12120
2017-07-28T05:56:27.641Z,10944
2017-07-28T05:57:29.328Z,10292
2017-07-28T05:58:31.083Z,11888
2017-07-28T05:59:32.734Z,23232
2017-07-28T06:00:34.409Z,18720
2017-07-28T06:01:36.083Z,15208
2017-07-28T06:02:37.751Z,13104
2017-07-28T06:03:39.423Z,12432
2017-07-28T06:04:41.089Z,21632
2017-07-28T06:05:42.761Z,17792
2017-07-28T06:06:44.421Z,17984
2017-07-28T06:07:46.093Z,25504
2017-07-28T06:08:47.765Z,13268
2017-07-28T06:09:49.435Z,13924
2017-07-28T06:10:51.107Z,23456
2017-07-28T06:11:52.775Z,19648
2017-07-28T06:12:54.440Z,18112
2017-07-28T06:13:56.107Z,17252
2017-07-28T06:14:57.852Z,17760
2017-07-28T06:15:59.518Z,16620
2017-07-28T06:17:01.196Z,14572
2017-07-28T06:18:02.869Z,13172
2017-07-28T06:19:04.546Z,17272
2017-07-28T06:20:06.217Z,18624
2017-07-28T06:21:07.893Z,24928
2017-07-28T06:22:09.569Z,20192
2017-07-28T06:23:11.250Z,12852
2017-07-28T06:24:12.925Z,17040
2017-07-28T06:25:14.611Z,16100
2017-07-28T06:26:16.282Z,17920
2017-07-28T06:27:17.961Z,19520
2017-07-28T06:28:19.619Z,16244
2017-07-28T06:29:21.287Z,20224
2017-07-28T06:30:22.954Z,21568
2017-07-28T06:31:24.621Z,19552
2017-07-28T06:32:26.291Z,23488
2017-07-28T06:33:28.482Z,22368
2017-07-28T06:34:30.136Z,19840
2017-07-28T06:35:31.824Z,26176
2017-07-28T06:36:33.485Z,29664
2017-07-28T06:37:35.158Z,30048
2017-07-28T06:38:36.824Z,35872
2017-07-28T06:39:38.497Z,21408
2017-07-28T06:40:40.165Z,16312
2017-07-28T06:41:41.827Z,19040
2017-07-28T06:42:43.509Z,24896
2017-07-28T06:43:45.183Z,20256
2017-07-28T06:44:46.857Z,19328
2017-07-28T06:45:48.523Z,20768
2017-07-28T06:46:50.197Z,30208
2017-07-28T06:47:51.863Z,23680
2017-07-28T06:48:53.540Z,18880
2017-07-28T06:49:55.212Z,18144
2017-07-28T06:50:56.876Z,17968
2017-07-28T06:51:58.554Z,21248
2017-07-28T06:53:00.234Z,46688
2017-07-28T06:54:01.919Z,28192
2017-07-28T06:55:03.591Z,24544
2017-07-28T06:56:05.263Z,32736
2017-07-28T06:57:06.934Z,81664
2017-07-28T06:58:08.615Z,23872
2017-07-28T06:59:10.290Z,21664
2017-07-28T07:00:11.967Z,23392
2017-07-28T07:01:13.632Z,24288
2017-07-28T07:02:15.313Z,27296
2017-07-28T07:03:16.981Z,26368
2017-07-28T07:04:18.643Z,14912
2017-07-28T07:05:20.332Z,16904
2017-07-28T07:06:22.017Z,69760
2017-07-28T07:07:23.693Z,27232
2017-07-28T07:08:25.367Z,74432
2017-07-28T07:09:27.047Z,37568
2017-07-28T07:10:28.720Z,73600
2017-07-28T07:11:30.388Z,84224
2017-07-28T07:12:32.058Z,70336
2017-07-28T07:13:33.725Z,41504
2017-07-28T07:14:35.400Z,80032
2017-07-28T07:15:37.082Z,84128
2017-07-28T07:16:38.772Z,89216
2017-07-28T07:17:40.435Z,41696
2017-07-28T07:18:42.152Z,34944
2017-07-28T07:19:43.823Z,18560
2017-07-28T07:20:45.494Z,14124
2017-07-28T07:21:47.167Z,17220
2017-07-28T07:22:48.852Z,29952
2017-07-28T07:23:50.531Z,81248
2017-07-28T07:24:52.225Z,37888
2017-07-28T07:25:53.905Z,26336
2017-07-28T07:26:55.587Z,19520
2017-07-28T07:27:57.260Z,17504
2017-07-28T07:28:58.952Z,16760
2017-07-28T07:30:00.624Z,17860
2017-07-28T07:31:02.291Z,32768
2017-07-28T07:32:03.967Z,75680
2017-07-28T07:33:05.638Z,32384
2017-07-28T07:34:07.310Z,30336
2017-07-28T07:35:08.992Z,32160
2017-07-28T07:36:10.670Z,47168
2017-07-28T07:37:12.352Z,46432
2017-07-28T07:38:14.061Z,41280
2017-07-28T07:39:15.781Z,113216
2017-07-28T07:40:17.449Z,36768
2017-07-28T07:41:19.144Z,34240
2017-07-28T07:42:20.791Z,27744
2017-07-28T07:43:22.468Z,20800
2017-07-28T07:44:24.139Z,21632
2017-07-28T07:45:25.811Z,20480
2017-07-28T07:46:27.481Z,28192
2017-07-28T07:47:29.155Z,37920
2017-07-28T07:48:30.825Z,27968
2017-07-28T07:49:32.526Z,57504
2017-07-28T07:50:34.202Z,39392
2017-07-28T07:51:35.873Z,30432
2017-07-28T07:52:37.544Z,57184
2017-07-28T07:53:39.244Z,25280
2017-07-28T07:54:40.894Z,28480
2017-07-28T07:55:42.569Z,48640
2017-07-28T07:56:44.238Z,23776
2017-07-28T07:57:45.924Z,113632
2017-07-28T07:58:47.593Z,37920
2017-07-28T07:59:49.281Z,88224
2017-07-28T08:00:50.966Z,26848
2017-07-28T08:01:52.654Z,29632
2017-07-28T08:02:54.349Z,20864
2017-07-28T08:03:56.042Z,105696
2017-07-28T08:04:57.715Z,75520
2017-07-28T08:05:59.397Z,105376
2017-07-28T08:07:02.044Z,114464
2017-07-28T08:08:03.787Z,56704
2017-07-28T08:09:05.460Z,61376
2017-07-28T08:10:07.128Z,35968
2017-07-28T08:11:08.801Z,29856
2017-07-28T08:12:10.517Z,48160
2017-07-28T08:13:12.188Z,41920
2017-07-28T08:14:13.870Z,40128
2017-07-28T08:15:15.543Z,37376
2017-07-28T08:16:17.221Z,23136
2017-07-28T08:17:18.886Z,17180
2017-07-28T08:18:20.555Z,15588
2017-07-28T08:19:22.616Z,20448
2017-07-28T08:20:24.278Z,30208
2017-07-28T08:21:25.948Z,38176
2017-07-28T08:22:27.656Z,36384
2017-07-28T08:23:29.337Z,36704
2017-07-28T08:24:31.015Z,50464
2017-07-28T08:25:32.679Z,21728
2017-07-28T08:26:34.347Z,21728
2017-07-28T08:27:36.019Z,27648
2017-07-28T08:28:37.695Z,28768
2017-07-28T08:29:39.366Z,24032
2017-07-28T08:30:41.040Z,19520
2017-07-28T08:31:42.727Z,17824
2017-07-28T08:32:44.412Z,18400
2017-07-28T08:33:46.091Z,24544
2017-07-28T08:34:47.782Z,31456
2017-07-28T08:35:49.460Z,39904
2017-07-28T08:36:51.131Z,44640
2017-07-28T08:37:52.812Z,27328
2017-07-28T08:38:54.479Z,24384
2017-07-28T08:39:56.289Z,16404
2017-07-28T08:40:57.971Z,12344
2017-07-28T08:41:59.680Z,10372
2017-07-28T08:43:01.371Z,12192
2017-07-28T08:44:03.067Z,13368
2017-07-28T08:45:04.884Z,14280
2017-07-28T08:46:06.623Z,14784
2017-07-28T08:47:08.405Z,16764
2017-07-28T08:48:10.228Z,21440
2017-07-28T08:49:11.994Z,23360
2017-07-28T08:50:13.809Z,23808
2017-07-28T08:51:15.602Z,24672
2017-07-28T08:52:17.532Z,24512
2017-07-28T08:53:19.275Z,25568
2017-07-28T08:54:21.132Z,29952
2017-07-28T08:55:23.012Z,26656
2017-07-28T08:56:24.847Z,20896
2017-07-28T08:57:26.708Z,17920
2017-07-28T08:58:28.555Z,19488
2017-07-28T08:59:30.400Z,21600
2017-07-28T09:00:32.247Z,25952
2017-07-28T09:01:34.077Z,87744
2017-07-28T09:02:35.757Z,40672
2017-07-28T09:03:37.884Z,153728
2017-07-28T09:04:39.548Z,91488
2017-07-28T09:05:41.225Z,142240
2017-07-28T09:06:42.892Z,108416
2017-07-28T09:07:44.577Z,139968
2017-07-28T09:08:46.255Z,150944
2017-07-28T09:09:47.934Z,156672
2017-07-28T09:10:49.617Z,34496
2017-07-28T09:11:51.300Z,29280
2017-07-28T09:12:52.989Z,155776
2017-07-28T09:13:54.667Z,65824
2017-07-28T09:14:56.369Z,55584
2017-07-28T09:15:58.042Z,161056
2017-07-28T09:16:59.721Z,110528
2017-07-28T09:18:01.440Z,121728
2017-07-28T09:19:03.119Z,26080
2017-07-28T09:20:04.796Z,36384
2017-07-28T09:21:06.470Z,79712
2017-07-28T09:22:08.154Z,43456
2017-07-28T09:23:09.836Z,85664
2017-07-28T09:24:11.515Z,97344
2017-07-28T09:25:13.201Z,72384
2017-07-28T09:26:14.876Z,37216
2017-07-28T09:27:16.547Z,53664
2017-07-28T09:28:18.212Z,71872
2017-07-28T09:29:19.922Z,161216
2017-07-28T09:30:21.606Z,95968
2017-07-28T09:31:23.275Z,51968
2017-07-28T09:32:24.948Z,41568
2017-07-28T09:33:26.633Z,33824
2017-07-28T09:34:28.307Z,34432
2017-07-28T09:35:29.992Z,35136
2017-07-28T09:36:31.659Z,37824
2017-07-28T09:37:33.376Z,42528
2017-07-28T09:38:35.067Z,48320
2017-07-28T09:39:36.744Z,70240
2017-07-28T09:40:38.424Z,41504
2017-07-28T09:41:40.101Z,44960
2017-07-28T09:42:41.779Z,73792
2017-07-28T09:43:43.456Z,44640
2017-07-28T09:44:45.137Z,42976
2017-07-28T09:45:46.821Z,43520
2017-07-28T09:46:48.497Z,40608
2017-07-28T09:47:50.186Z,34528
2017-07-28T09:48:51.861Z,40160
2017-07-28T09:49:53.533Z,43424
2017-07-28T09:50:55.209Z,38944
2017-07-28T09:51:56.881Z,34112
2017-07-28T09:52:58.565Z,36640
2017-07-28T09:54:00.225Z,32352
2017-07-28T09:55:01.909Z,26144
2017-07-28T09:56:03.574Z,20864
2017-07-28T09:57:05.259Z,16608
2017-07-28T09:58:06.938Z,18880
2017-07-28T09:59:08.612Z,29152
2017-07-28T10:00:10.282Z,42560
2017-07-28T10:01:11.962Z,62592
2017-07-28T10:02:13.645Z,55104
2017-07-28T10:03:15.359Z,57312
2017-07-28T10:04:17.060Z,55360
2017-07-28T10:05:18.803Z,52768
2017-07-28T10:06:20.477Z,46208
2017-07-28T10:07:22.189Z,39008
2017-07-28T10:08:23.871Z,31904
2017-07-28T10:09:25.632Z,24320
2017-07-28T10:10:27.306Z,19648
2017-07-28T10:11:29.007Z,16580
2017-07-28T10:12:30.681Z,16112
2017-07-28T10:13:32.393Z,17472
2017-07-28T10:14:34.069Z,21536
2017-07-28T10:15:35.751Z,30208
2017-07-28T10:16:37.460Z,38848
2017-07-28T10:17:39.133Z,40640
2017-07-28T10:18:40.832Z,41536
2017-07-28T10:19:42.495Z,40320
2017-07-28T10:20:44.166Z,37216
2017-07-28T10:21:45.878Z,36896
2017-07-28T10:22:47.560Z,40640
2017-07-28T10:23:49.234Z,41472
2017-07-28T10:24:50.921Z,40128
2017-07-28T10:25:52.587Z,35840
2017-07-28T10:26:54.265Z,33184
2017-07-28T10:27:55.934Z,32864
2017-07-28T10:28:57.616Z,33504
2017-07-28T10:29:59.291Z,34784
2017-07-28T10:31:01.085Z,35552
2017-07-28T10:32:02.749Z,37056
2017-07-28T10:33:04.429Z,38944
2017-07-28T10:34:06.113Z,40768
2017-07-28T10:35:07.791Z,42944
2017-07-28T10:36:09.480Z,45568
2017-07-28T10:37:11.163Z,52320
2017-07-28T10:38:12.853Z,55104
2017-07-28T10:39:14.527Z,63328
2017-07-28T10:40:16.228Z,63808
2017-07-28T10:41:17.902Z,72352
2017-07-28T10:42:19.573Z,69472
2017-07-28T10:43:21.278Z,69024
2017-07-28T10:44:22.959Z,64480
2017-07-28T10:45:24.634Z,59712
2017-07-28T10:46:26.303Z,59968
2017-07-28T10:47:27.973Z,54496
2017-07-28T10:48:29.664Z,55168
2017-07-28T10:49:31.340Z,53920
2017-07-28T10:50:33.032Z,62560
2017-07-28T10:51:34.713Z,54560
2017-07-28T10:52:36.398Z,53760
2017-07-28T10:53:38.068Z,50784
2017-07-28T10:54:39.741Z,68160
2017-07-28T10:55:41.422Z,128896
2017-07-28T10:56:43.211Z,85600
2017-07-28T10:57:44.900Z,178240
2017-07-28T10:58:46.584Z,185984
2017-07-28T10:59:48.256Z,79232
2017-07-28T11:00:49.964Z,184032
2017-07-28T11:01:51.631Z,66976
2017-07-28T11:02:53.309Z,85824
2017-07-28T11:03:54.984Z,87232
2017-07-28T11:04:56.666Z,66624
2017-07-28T11:05:58.354Z,81216
2017-07-28T11:07:00.031Z,124928
2017-07-28T11:08:01.708Z,67232
2017-07-28T11:09:03.387Z,63584
2017-07-28T11:10:05.071Z,54080
2017-07-28T11:11:06.750Z,47680
2017-07-28T11:12:08.429Z,75392
2017-07-28T11:13:10.111Z,158208
2017-07-28T11:14:11.817Z,50752
2017-07-28T11:15:13.486Z,54176
2017-07-28T11:16:15.164Z,50176
2017-07-28T11:17:16.848Z,45600
2017-07-28T11:18:18.534Z,69120
2017-07-28T11:19:20.206Z,127296
2017-07-28T11:20:21.891Z,100704
2017-07-28T11:21:23.579Z,203328
2017-07-28T11:22:25.266Z,60448
2017-07-28T11:23:26.945Z,50880
2017-07-28T11:24:28.627Z,43040
2017-07-28T11:25:30.355Z,40288
2017-07-28T11:26:32.028Z,42400
2017-07-28T11:27:33.706Z,54048
2017-07-28T11:28:35.393Z,128768
2017-07-28T11:29:37.078Z,87936
2017-07-28T11:30:38.762Z,52544
2017-07-28T11:31:40.446Z,56512
2017-07-28T11:32:42.129Z,96704
2017-07-28T11:33:43.813Z,52896
2017-07-28T11:34:45.503Z,39104
2017-07-28T11:35:47.211Z,110912
2017-07-28T11:36:48.886Z,34720
2017-07-28T11:37:50.555Z,27392
2017-07-28T11:38:52.283Z,20960
2017-07-28T11:39:53.969Z,21344
2017-07-28T11:40:55.661Z,23648
2017-07-28T11:41:57.334Z,31520
2017-07-28T11:42:59.021Z,36096
2017-07-28T11:44:00.695Z,47008
2017-07-28T11:45:02.374Z,108896
2017-07-28T11:46:04.047Z,48064
2017-07-28T11:47:05.718Z,58272
2017-07-28T11:48:07.528Z,43648
2017-07-28T11:49:09.213Z,87008
2017-07-28T11:50:10.893Z,33824
2017-07-28T11:51:12.566Z,31104
2017-07-28T11:52:14.280Z,29248
2017-07-28T11:53:15.965Z,26048
2017-07-28T11:54:17.636Z,26656
2017-07-28T11:55:19.322Z,35456
2017-07-28T11:56:21.003Z,60704
2017-07-28T11:57:22.688Z,45152
2017-07-28T11:58:24.362Z,43424
2017-07-28T11:59:26.043Z,42400
2017-07-28T12:00:27.725Z,43680
2017-07-28T12:01:29.420Z,43584
2017-07-28T12:02:31.100Z,43520
2017-07-28T12:03:32.828Z,63776
2017-07-28T12:04:34.524Z,149344
2017-07-28T12:05:36.206Z,48320
2017-07-28T12:06:37.960Z,36416
2017-07-28T12:07:39.634Z,25920
2017-07-28T12:08:41.309Z,116128
2017-07-28T12:09:43.033Z,27872
2017-07-28T12:10:44.736Z,20416
2017-07-28T12:11:46.416Z,24896
2017-07-28T12:12:48.300Z,34720
2017-07-28T12:13:49.995Z,71968
2017-07-28T12:14:51.669Z,104288
2017-07-28T12:15:53.366Z,107904
2017-07-28T12:18:04.701Z,114080
2017-07-28T12:19:06.389Z,102496
2017-07-28T12:20:08.065Z,58656
2017-07-28T12:21:09.754Z,77344
2017-07-28T12:22:11.429Z,100480
2017-07-28T12:23:13.107Z,55392
2017-07-28T12:24:14.778Z,66048
2017-07-28T12:25:16.457Z,56064
2017-07-28T12:26:18.138Z,47392
2017-07-28T12:27:19.824Z,44480
2017-07-28T12:28:21.497Z,42432
2017-07-28T12:29:23.175Z,35424
2017-07-28T12:30:24.864Z,30176
2017-07-28T12:31:26.545Z,27360
2017-07-28T12:32:28.219Z,26208
2017-07-28T12:33:29.915Z,24032
2017-07-28T12:34:31.589Z,24320
2017-07-28T12:35:33.279Z,28736
2017-07-28T12:36:34.950Z,43008
2017-07-28T12:37:36.691Z,46144
2017-07-28T12:38:38.401Z,83360
2017-07-28T12:39:40.079Z,73312
2017-07-28T12:40:41.815Z,61824
2017-07-28T12:41:43.493Z,46144
2017-07-28T12:42:45.163Z,49024
2017-07-28T12:43:46.840Z,53344
2017-07-28T12:44:48.522Z,57312
2017-07-28T12:45:50.200Z,51008
2017-07-28T12:46:51.888Z,48896
2017-07-28T12:47:53.571Z,51200
2017-07-28T12:48:55.251Z,116480
2017-07-28T12:49:56.925Z,63552
2017-07-28T12:50:58.617Z,48448
2017-07-28T12:52:00.306Z,61184
2017-07-28T12:53:01.990Z,48096
2017-07-28T12:54:03.671Z,48224
2017-07-28T12:55:05.347Z,57984
2017-07-28T12:56:07.021Z,103264
2017-07-28T12:57:08.700Z,70784
2017-07-28T12:58:10.371Z,72448
2017-07-28T12:59:12.067Z,68896
2017-07-28T13:00:13.747Z,80800
2017-07-28T13:01:15.426Z,72704
2017-07-28T13:02:17.103Z,42304
2017-07-28T13:03:18.786Z,48128
2017-07-28T13:04:20.475Z,42848
2017-07-28T13:05:22.212Z,114368
2017-07-28T13:06:23.891Z,80480
2017-07-28T13:07:25.660Z,63392
2017-07-28T13:08:27.391Z,105408
2017-07-28T13:09:29.065Z,115712
2017-07-28T13:10:30.740Z,100768
2017-07-28T13:11:32.437Z,79296
2017-07-28T13:12:34.104Z,67872
2017-07-28T13:13:35.824Z,102208
2017-07-28T13:14:37.578Z,95552
2017-07-28T13:15:39.419Z,94208
2017-07-28T13:16:41.349Z,58624
2017-07-28T14:27:03.627Z,31968
2017-07-28T14:28:05.329Z,29536
2017-07-28T14:29:07.068Z,26784
2017-07-28T14:30:08.749Z,24288
2017-07-28T14:31:10.484Z,21760
2017-07-28T14:32:12.230Z,19936
2017-07-28T14:33:13.945Z,16124
2017-07-28T14:34:15.650Z,12608
2017-07-28T14:35:18.160Z,10116
2017-07-28T14:36:19.962Z,9216
2017-07-28T14:37:21.786Z,8616
2017-07-28T14:38:23.603Z,8224
2017-07-28T14:39:25.442Z,7496
2017-07-28T14:40:27.254Z,6252
2017-07-28T14:41:28.952Z,5432
2017-07-28T14:42:30.701Z,5324
2017-07-28T14:43:32.572Z,5268
2017-07-28T14:44:34.497Z,4608
2017-07-28T14:45:36.318Z,4328
2017-07-28T14:46:38.161Z,3988
2017-07-28T14:47:40.307Z,4588
2017-07-28T14:48:42.174Z,5184
2017-07-28T14:49:44.277Z,5012
2017-07-28T14:50:46.330Z,4572
2017-07-28T14:51:48.049Z,3400
2017-07-28T14:52:53.008Z,2468
2017-07-28T14:53:56.126Z,2708
2017-07-28T14:54:57.927Z,3080
2017-07-28T14:55:59.754Z,3196